sensor_id;sensor_type;location;lat;lon;timestamp;pressure;altitude;pressure_sealevel;temperature;humidity
9889;BME280;4983;42.112;24.738;2023-07-29T00:02:06;99342.44;;;21.66;56.76
9889;BME280;4983;42.112;24.738;2023-07-29T00:04:34;99343.13;;;21.55;58.80
9889;BME280;4983;42.112;24.738;2023-07-29T00:07:01;99339.59;;;21.79;56.86
9889;BME280;4983;42.112;24.738;2023-07-29T00:09:31;99367.16;;;21.79;57.85
9889;BME280;4983;42.112;24.738;2023-07-29T00:11:58;99336.91;;;21.66;57.98
9889;BME280;4983;42.112;24.738;2023-07-29T00:14:25;99328.53;;;21.85;56.82
9889;BME280;4983;42.112;24.738;2023-07-29T00:16:53;99333.06;;;21.98;57.92
9889;BME280;4983;42.112;24.738;2023-07-29T00:19:20;99351.28;;;21.99;61.32
9889;BME280;4983;42.112;24.738;2023-07-29T00:21:49;99349.91;;;21.90;61.96
9889;BME280;4983;42.112;24.738;2023-07-29T00:24:16;99361.25;;;22.00;60.57
9889;BME280;4983;42.112;24.738;2023-07-29T00:26:44;99372.94;;;21.71;63.67
9889;BME280;4983;42.112;24.738;2023-07-29T00:29:12;99406.59;;;21.66;66.56
9889;BME280;4983;42.112;24.738;2023-07-29T00:31:39;99403.34;;;21.45;66.21
9889;BME280;4983;42.112;24.738;2023-07-29T00:34:06;99388.66;;;21.57;64.98
9889;BME280;4983;42.112;24.738;2023-07-29T00:36:33;99405.72;;;21.35;67.49
9889;BME280;4983;42.112;24.738;2023-07-29T00:39:00;99409.81;;;21.19;68.65
9889;BME280;4983;42.112;24.738;2023-07-29T00:41:27;99417.88;;;21.14;69.13
9889;BME280;4983;42.112;24.738;2023-07-29T00:43:56;99425.38;;;20.95;71.59
9889;BME280;4983;42.112;24.738;2023-07-29T00:46:24;99437.66;;;20.92;71.72
9889;BME280;4983;42.112;24.738;2023-07-29T00:48:51;99444.25;;;20.65;74.83
9889;BME280;4983;42.112;24.738;2023-07-29T00:51:18;99428.78;;;20.71;74.52
9889;BME280;4983;42.112;24.738;2023-07-29T00:53:45;99428.34;;;20.80;73.33
9889;BME280;4983;42.112;24.738;2023-07-29T00:56:13;99430.50;;;20.52;74.15
9889;BME280;4983;42.112;24.738;2023-07-29T00:58:40;99425.19;;;20.64;74.12
9889;BME280;4983;42.112;24.738;2023-07-29T01:01:08;99414.84;;;20.59;73.47
9889;BME280;4983;42.112;24.738;2023-07-29T01:03:36;99415.03;;;20.64;74.52
9889;BME280;4983;42.112;24.738;2023-07-29T01:06:09;99426.06;;;20.38;75.61
9889;BME280;4983;42.112;24.738;2023-07-29T01:08:44;99424.16;;;20.13;77.16
9889;BME280;4983;42.112;24.738;2023-07-29T01:11:23;99411.50;;;20.18;74.63
9889;BME280;4983;42.112;24.738;2023-07-29T01:14:00;99400.28;;;20.20;74.25
9889;BME280;4983;42.112;24.738;2023-07-29T01:16:32;99401.56;;;20.30;74.46
9889;BME280;4983;42.112;24.738;2023-07-29T01:19:05;99397.53;;;20.33;72.68
9889;BME280;4983;42.112;24.738;2023-07-29T01:21:35;99407.88;;;20.31;74.81
9889;BME280;4983;42.112;24.738;2023-07-29T01:24:04;99396.69;;;20.39;74.50
9889;BME280;4983;42.112;24.738;2023-07-29T01:26:32;99406.00;;;20.18;75.87
9889;BME280;4983;42.112;24.738;2023-07-29T01:28:59;99403.88;;;20.07;76.71
9889;BME280;4983;42.112;24.738;2023-07-29T01:31:32;99404.69;;;20.21;75.32
9889;BME280;4983;42.112;24.738;2023-07-29T01:34:08;99412.97;;;20.14;76.83
9889;BME280;4983;42.112;24.738;2023-07-29T01:36:37;99408.94;;;20.10;77.61
9889;BME280;4983;42.112;24.738;2023-07-29T01:39:07;99408.75;;;20.18;76.64
9889;BME280;4983;42.112;24.738;2023-07-29T01:41:37;99405.75;;;20.00;77.77
9889;BME280;4983;42.112;24.738;2023-07-29T01:44:06;99416.72;;;19.81;79.04
9889;BME280;4983;42.112;24.738;2023-07-29T01:46:33;99414.63;;;19.89;78.23
9889;BME280;4983;42.112;24.738;2023-07-29T01:49:01;99408.25;;;19.82;79.14
9889;BME280;4983;42.112;24.738;2023-07-29T01:51:28;99408.91;;;19.84;79.20
9889;BME280;4983;42.112;24.738;2023-07-29T01:53:55;99411.19;;;19.61;80.92
9889;BME280;4983;42.112;24.738;2023-07-29T01:56:26;99410.31;;;19.54;81.35
9889;BME280;4983;42.112;24.738;2023-07-29T01:58:53;99412.03;;;19.68;81.46
9889;BME280;4983;42.112;24.738;2023-07-29T02:01:20;99404.81;;;19.61;79.88
9889;BME280;4983;42.112;24.738;2023-07-29T02:03:47;99397.47;;;19.74;78.74
9889;BME280;4983;42.112;24.738;2023-07-29T02:06:20;99404.66;;;19.69;80.24
9889;BME280;4983;42.112;24.738;2023-07-29T02:08:47;99426.56;;;19.56;83.52
9889;BME280;4983;42.112;24.738;2023-07-29T02:11:14;99398.28;;;19.62;80.43
9889;BME280;4983;42.112;24.738;2023-07-29T02:13:42;99393.66;;;19.75;79.18
9889;BME280;4983;42.112;24.738;2023-07-29T02:16:09;99411.38;;;19.53;81.25
9889;BME280;4983;42.112;24.738;2023-07-29T02:18:37;99428.88;;;19.52;81.16
9889;BME280;4983;42.112;24.738;2023-07-29T02:21:04;99423.13;;;19.28;82.03
9889;BME280;4983;42.112;24.738;2023-07-29T02:23:31;99423.56;;;19.31;82.03
9889;BME280;4983;42.112;24.738;2023-07-29T02:25:58;99414.91;;;19.41;80.47
9889;BME280;4983;42.112;24.738;2023-07-29T02:28:27;99418.28;;;19.36;82.65
9889;BME280;4983;42.112;24.738;2023-07-29T02:33:47;99407.81;;;19.66;81.37
9889;BME280;4983;42.112;24.738;2023-07-29T02:36:15;99415.00;;;19.73;79.59
9889;BME280;4983;42.112;24.738;2023-07-29T02:38:42;99414.78;;;19.68;81.06
9889;BME280;4983;42.112;24.738;2023-07-29T02:41:10;99407.81;;;19.59;79.82
9889;BME280;4983;42.112;24.738;2023-07-29T02:43:37;99420.50;;;19.73;81.44
9889;BME280;4983;42.112;24.738;2023-07-29T02:46:06;99414.78;;;19.68;80.34
9889;BME280;4983;42.112;24.738;2023-07-29T02:48:33;99419.88;;;19.71;80.98
9889;BME280;4983;42.112;24.738;2023-07-29T02:51:02;99402.84;;;19.35;79.67
9889;BME280;4983;42.112;24.738;2023-07-29T02:53:29;99407.13;;;19.44;79.11
9889;BME280;4983;42.112;24.738;2023-07-29T02:55:56;99418.56;;;19.54;80.08
9889;BME280;4983;42.112;24.738;2023-07-29T02:58:23;99415.16;;;19.05;81.88
9889;BME280;4983;42.112;24.738;2023-07-29T03:00:51;99416.53;;;19.22;80.41
9889;BME280;4983;42.112;24.738;2023-07-29T03:03:19;99417.75;;;19.20;82.37
9889;BME280;4983;42.112;24.738;2023-07-29T03:05:46;99427.16;;;18.98;82.27
9889;BME280;4983;42.112;24.738;2023-07-29T03:08:15;99426.50;;;18.96;82.37
9889;BME280;4983;42.112;24.738;2023-07-29T03:10:42;99430.75;;;18.98;81.89
9889;BME280;4983;42.112;24.738;2023-07-29T03:13:09;99428.06;;;19.11;82.76
9889;BME280;4983;42.112;24.738;2023-07-29T03:15:36;99430.47;;;18.87;83.32
9889;BME280;4983;42.112;24.738;2023-07-29T03:18:03;99429.19;;;18.83;82.13
9889;BME280;4983;42.112;24.738;2023-07-29T03:20:30;99432.22;;;18.94;81.98
9889;BME280;4983;42.112;24.738;2023-07-29T03:22:57;99423.31;;;18.92;81.99
9889;BME280;4983;42.112;24.738;2023-07-29T03:25:26;99424.13;;;18.86;81.45
9889;BME280;4983;42.112;24.738;2023-07-29T03:27:54;99430.63;;;18.79;80.93
9889;BME280;4983;42.112;24.738;2023-07-29T03:30:22;99428.03;;;19.05;80.97
9889;BME280;4983;42.112;24.738;2023-07-29T03:32:50;99434.47;;;18.84;81.91
9889;BME280;4983;42.112;24.738;2023-07-29T03:35:19;99432.59;;;18.91;81.20
9889;BME280;4983;42.112;24.738;2023-07-29T03:37:47;99440.75;;;19.19;80.99
9889;BME280;4983;42.112;24.738;2023-07-29T03:40:15;99439.88;;;19.12;82.57
9889;BME280;4983;42.112;24.738;2023-07-29T03:42:45;99449.78;;;19.06;84.37
9889;BME280;4983;42.112;24.738;2023-07-29T03:45:12;99444.31;;;19.06;83.25
9889;BME280;4983;42.112;24.738;2023-07-29T03:47:39;99445.13;;;19.00;83.13
9889;BME280;4983;42.112;24.738;2023-07-29T03:50:07;99452.25;;;18.95;84.75
9889;BME280;4983;42.112;24.738;2023-07-29T03:52:35;99442.28;;;19.21;83.58
9889;BME280;4983;42.112;24.738;2023-07-29T03:55:02;99441.34;;;19.48;81.56
9889;BME280;4983;42.112;24.738;2023-07-29T03:57:29;99444.59;;;19.78;80.92
9889;BME280;4983;42.112;24.738;2023-07-29T03:59:58;99441.88;;;19.97;78.91
9889;BME280;4983;42.112;24.738;2023-07-29T04:02:25;99443.41;;;20.13;79.01
9889;BME280;4983;42.112;24.738;2023-07-29T04:04:52;99435.16;;;20.19;77.64
9889;BME280;4983;42.112;24.738;2023-07-29T04:07:19;99443.00;;;20.29;76.77
9889;BME280;4983;42.112;24.738;2023-07-29T04:09:47;99442.78;;;20.43;76.34
9889;BME280;4983;42.112;24.738;2023-07-29T04:12:15;99436.88;;;20.40;75.61
9889;BME280;4983;42.112;24.738;2023-07-29T04:14:42;99438.75;;;20.39;75.49
9889;BME280;4983;42.112;24.738;2023-07-29T04:17:11;99446.81;;;20.47;78.23
9889;BME280;4983;42.112;24.738;2023-07-29T04:19:38;99453.97;;;20.35;76.84
9889;BME280;4983;42.112;24.738;2023-07-29T04:22:05;99469.63;;;20.35;77.58
9889;BME280;4983;42.112;24.738;2023-07-29T04:24:32;99480.63;;;20.28;79.73
9889;BME280;4983;42.112;24.738;2023-07-29T04:26:59;99456.94;;;20.14;77.67
9889;BME280;4983;42.112;24.738;2023-07-29T04:29:26;99449.72;;;20.07;77.83
9889;BME280;4983;42.112;24.738;2023-07-29T04:31:53;99481.25;;;20.17;80.31
9889;BME280;4983;42.112;24.738;2023-07-29T04:34:22;99480.63;;;20.22;79.23
9889;BME280;4983;42.112;24.738;2023-07-29T04:36:49;99470.84;;;20.00;79.16
9889;BME280;4983;42.112;24.738;2023-07-29T04:39:16;99474.84;;;19.97;78.99
9889;BME280;4983;42.112;24.738;2023-07-29T04:41:43;99475.69;;;19.98;80.47
9889;BME280;4983;42.112;24.738;2023-07-29T04:44:11;99472.31;;;20.02;79.45
9889;BME280;4983;42.112;24.738;2023-07-29T04:46:38;99478.53;;;20.30;80.43
9889;BME280;4983;42.112;24.738;2023-07-29T04:49:05;99468.75;;;20.15;78.11
9889;BME280;4983;42.112;24.738;2023-07-29T04:51:33;99478.09;;;20.33;78.56
9889;BME280;4983;42.112;24.738;2023-07-29T04:54:02;99460.09;;;20.44;77.69
9889;BME280;4983;42.112;24.738;2023-07-29T04:56:30;99453.56;;;20.32;76.45
9889;BME280;4983;42.112;24.738;2023-07-29T04:58:57;99453.56;;;20.38;77.77
9889;BME280;4983;42.112;24.738;2023-07-29T05:01:24;99461.81;;;20.38;77.26
9889;BME280;4983;42.112;24.738;2023-07-29T05:03:51;99470.91;;;20.45;78.74
9889;BME280;4983;42.112;24.738;2023-07-29T05:06:19;99454.41;;;20.26;77.21
9889;BME280;4983;42.112;24.738;2023-07-29T05:08:47;99463.72;;;20.44;77.13
9889;BME280;4983;42.112;24.738;2023-07-29T05:11:15;99473.03;;;20.63;78.35
9889;BME280;4983;42.112;24.738;2023-07-29T05:13:42;99459.88;;;20.65;76.38
9889;BME280;4983;42.112;24.738;2023-07-29T05:16:09;99467.91;;;20.86;76.13
9889;BME280;4983;42.112;24.738;2023-07-29T05:18:36;99443.75;;;21.07;73.43
9889;BME280;4983;42.112;24.738;2023-07-29T05:21:04;99455.38;;;21.02;73.51
9889;BME280;4983;42.112;24.738;2023-07-29T05:23:31;99455.53;;;21.27;73.18
9889;BME280;4983;42.112;24.738;2023-07-29T05:26:00;99449.41;;;21.25;73.21
9889;BME280;4983;42.112;24.738;2023-07-29T05:28:27;99453.59;;;21.40;73.17
9889;BME280;4983;42.112;24.738;2023-07-29T05:30:54;99452.91;;;21.45;72.82
9889;BME280;4983;42.112;24.738;2023-07-29T05:33:21;99453.50;;;21.53;71.92
9889;BME280;4983;42.112;24.738;2023-07-29T05:35:48;99448.72;;;21.86;71.08
9889;BME280;4983;42.112;24.738;2023-07-29T05:38:16;99452.94;;;21.89;70.40
9889;BME280;4983;42.112;24.738;2023-07-29T05:40:43;99442.00;;;22.07;68.59
9889;BME280;4983;42.112;24.738;2023-07-29T05:43:12;99445.28;;;22.22;69.41
9889;BME280;4983;42.112;24.738;2023-07-29T05:45:40;99438.25;;;22.26;68.39
9889;BME280;4983;42.112;24.738;2023-07-29T05:48:07;99445.00;;;22.30;68.39
9889;BME280;4983;42.112;24.738;2023-07-29T05:50:34;99446.31;;;22.52;67.23
9889;BME280;4983;42.112;24.738;2023-07-29T05:53:01;99433.94;;;22.61;65.97
9889;BME280;4983;42.112;24.738;2023-07-29T05:55:28;99431.78;;;22.63;66.43
9889;BME280;4983;42.112;24.738;2023-07-29T05:57:55;99418.09;;;22.74;64.90
9889;BME280;4983;42.112;24.738;2023-07-29T06:00:24;99420.78;;;22.81;63.44
9889;BME280;4983;42.112;24.738;2023-07-29T06:02:51;99411.44;;;23.00;62.60
9889;BME280;4983;42.112;24.738;2023-07-29T06:05:19;99417.66;;;23.13;64.06
9889;BME280;4983;42.112;24.738;2023-07-29T06:07:46;99415.00;;;23.25;61.85
9889;BME280;4983;42.112;24.738;2023-07-29T06:10:14;99405.63;;;23.08;63.58
9889;BME280;4983;42.112;24.738;2023-07-29T06:12:44;99414.63;;;23.21;64.17
9889;BME280;4983;42.112;24.738;2023-07-29T06:15:11;99415.59;;;23.45;63.22
9889;BME280;4983;42.112;24.738;2023-07-29T06:17:40;99407.53;;;23.43;61.72
9889;BME280;4983;42.112;24.738;2023-07-29T06:20:08;99418.00;;;23.71;62.91
9889;BME280;4983;42.112;24.738;2023-07-29T06:22:35;99408.63;;;23.90;61.94
9889;BME280;4983;42.112;24.738;2023-07-29T06:25:03;99419.66;;;23.90;62.69
9889;BME280;4983;42.112;24.738;2023-07-29T06:27:30;99411.28;;;23.78;61.84
9889;BME280;4983;42.112;24.738;2023-07-29T06:29:57;99405.06;;;24.12;61.05
9889;BME280;4983;42.112;24.738;2023-07-29T06:32:24;99413.16;;;24.37;61.26
9889;BME280;4983;42.112;24.738;2023-07-29T06:34:53;99395.00;;;24.52;58.21
9889;BME280;4983;42.112;24.738;2023-07-29T06:37:20;99386.25;;;24.78;57.21
9889;BME280;4983;42.112;24.738;2023-07-29T06:39:49;99385.53;;;24.83;57.06
9889;BME280;4983;42.112;24.738;2023-07-29T06:42:16;99371.38;;;25.07;54.42
9889;BME280;4983;42.112;24.738;2023-07-29T06:44:43;99367.22;;;24.93;52.88
9889;BME280;4983;42.112;24.738;2023-07-29T06:47:11;99352.34;;;25.22;52.02
9889;BME280;4983;42.112;24.738;2023-07-29T06:49:38;99364.94;;;25.41;54.80
9889;BME280;4983;42.112;24.738;2023-07-29T06:52:07;99354.91;;;25.52;51.67
9889;BME280;4983;42.112;24.738;2023-07-29T06:54:34;99351.19;;;25.74;52.57
9889;BME280;4983;42.112;24.738;2023-07-29T06:57:02;99367.03;;;25.90;51.42
9889;BME280;4983;42.112;24.738;2023-07-29T06:59:29;99350.59;;;26.00;50.62
9889;BME280;4983;42.112;24.738;2023-07-29T07:01:56;99337.72;;;25.94;49.56
9889;BME280;4983;42.112;24.738;2023-07-29T07:04:23;99336.38;;;25.97;49.05
9889;BME280;4983;42.112;24.738;2023-07-29T07:06:50;99336.78;;;26.22;48.82
9889;BME280;4983;42.112;24.738;2023-07-29T07:09:19;99331.06;;;26.45;49.57
9889;BME280;4983;42.112;24.738;2023-07-29T07:11:47;99328.69;;;26.53;47.07
9889;BME280;4983;42.112;24.738;2023-07-29T07:14:14;99327.25;;;26.51;46.79
9889;BME280;4983;42.112;24.738;2023-07-29T07:16:41;99310.19;;;26.75;45.51
9889;BME280;4983;42.112;24.738;2023-07-29T07:19:09;99305.97;;;26.94;45.78
9889;BME280;4983;42.112;24.738;2023-07-29T07:21:36;99285.13;;;26.92;42.92
9889;BME280;4983;42.112;24.738;2023-07-29T07:24:03;99295.28;;;27.24;42.53
9889;BME280;4983;42.112;24.738;2023-07-29T07:26:32;99294.28;;;27.35;44.73
9889;BME280;4983;42.112;24.738;2023-07-29T07:29:00;99294.09;;;27.42;43.69
9889;BME280;4983;42.112;24.738;2023-07-29T07:31:27;99276.31;;;27.43;41.35
9889;BME280;4983;42.112;24.738;2023-07-29T07:33:54;99284.66;;;27.43;41.82
9889;BME280;4983;42.112;24.738;2023-07-29T07:36:21;99279.53;;;27.35;42.71
9889;BME280;4983;42.112;24.738;2023-07-29T07:38:49;99278.44;;;27.14;42.26
9889;BME280;4983;42.112;24.738;2023-07-29T07:41:18;99275.22;;;27.44;40.60
9889;BME280;4983;42.112;24.738;2023-07-29T07:43:46;99279.78;;;27.55;42.95
9889;BME280;4983;42.112;24.738;2023-07-29T07:46:14;99269.44;;;27.77;41.07
9889;BME280;4983;42.112;24.738;2023-07-29T07:48:41;99271.44;;;28.13;40.56
9889;BME280;4983;42.112;24.738;2023-07-29T07:51:11;99252.44;;;28.41;38.87
9889;BME280;4983;42.112;24.738;2023-07-29T07:53:38;99260.06;;;28.56;38.81
9889;BME280;4983;42.112;24.738;2023-07-29T07:56:06;99264.63;;;28.82;38.28
9889;BME280;4983;42.112;24.738;2023-07-29T07:58:34;99242.97;;;28.94;36.93
9889;BME280;4983;42.112;24.738;2023-07-29T08:01:04;99255.06;;;29.09;38.03
9889;BME280;4983;42.112;24.738;2023-07-29T08:03:33;99249.81;;;29.28;39.98
9889;BME280;4983;42.112;24.738;2023-07-29T08:06:00;99245.38;;;29.37;39.47
9889;BME280;4983;42.112;24.738;2023-07-29T08:08:28;99233.66;;;29.30;37.75
9889;BME280;4983;42.112;24.738;2023-07-29T08:10:57;99235.13;;;29.57;37.39
9889;BME280;4983;42.112;24.738;2023-07-29T08:13:24;99228.97;;;29.60;37.59
9889;BME280;4983;42.112;24.738;2023-07-29T08:15:52;99232.06;;;29.94;38.03
9889;BME280;4983;42.112;24.738;2023-07-29T08:18:21;99227.31;;;29.99;37.54
9889;BME280;4983;42.112;24.738;2023-07-29T08:20:54;99222.84;;;30.18;36.25
9889;BME280;4983;42.112;24.738;2023-07-29T08:23:25;99203.84;;;30.30;34.98
9889;BME280;4983;42.112;24.738;2023-07-29T08:25:54;99216.41;;;30.33;36.76
9889;BME280;4983;42.112;24.738;2023-07-29T08:28:27;99225.31;;;30.55;37.93
9889;BME280;4983;42.112;24.738;2023-07-29T08:30:54;99216.81;;;30.90;36.54
9889;BME280;4983;42.112;24.738;2023-07-29T08:33:22;99211.22;;;30.95;35.40
9889;BME280;4983;42.112;24.738;2023-07-29T08:35:51;99194.13;;;30.96;35.16
9889;BME280;4983;42.112;24.738;2023-07-29T08:38:20;99207.00;;;30.97;35.36
9889;BME280;4983;42.112;24.738;2023-07-29T08:40:53;99187.00;;;30.65;33.54
9889;BME280;4983;42.112;24.738;2023-07-29T08:43:28;99200.63;;;30.82;35.61
9889;BME280;4983;42.112;24.738;2023-07-29T08:45:57;99190.06;;;30.74;35.06
9889;BME280;4983;42.112;24.738;2023-07-29T08:48:31;99182.91;;;31.06;33.59
9889;BME280;4983;42.112;24.738;2023-07-29T08:51:01;99172.72;;;31.30;34.55
9889;BME280;4983;42.112;24.738;2023-07-29T08:53:31;99185.25;;;31.38;35.52
9889;BME280;4983;42.112;24.738;2023-07-29T08:56:00;99181.69;;;31.66;34.35
9889;BME280;4983;42.112;24.738;2023-07-29T08:58:27;99177.75;;;31.67;33.67
9889;BME280;4983;42.112;24.738;2023-07-29T09:00:55;99166.22;;;31.35;33.33
9889;BME280;4983;42.112;24.738;2023-07-29T09:03:22;99189.41;;;31.45;35.24
9889;BME280;4983;42.112;24.738;2023-07-29T09:05:53;99177.66;;;31.43;33.41
9889;BME280;4983;42.112;24.738;2023-07-29T09:08:24;99169.47;;;31.52;32.34
9889;BME280;4983;42.112;24.738;2023-07-29T09:10:53;99173.31;;;31.61;33.58
9889;BME280;4983;42.112;24.738;2023-07-29T09:13:21;99172.38;;;31.80;33.41
9889;BME280;4983;42.112;24.738;2023-07-29T09:15:48;99168.22;;;31.68;32.28
9889;BME280;4983;42.112;24.738;2023-07-29T09:18:17;99169.31;;;32.05;32.64
9889;BME280;4983;42.112;24.738;2023-07-29T09:20:47;99156.97;;;32.58;31.85
9889;BME280;4983;42.112;24.738;2023-07-29T09:23:16;99146.66;;;32.77;30.76
9889;BME280;4983;42.112;24.738;2023-07-29T09:25:46;99132.75;;;32.91;28.77
9889;BME280;4983;42.112;24.738;2023-07-29T09:28:14;99124.19;;;33.01;29.21
9889;BME280;4983;42.112;24.738;2023-07-29T09:30:43;99128.75;;;33.15;29.59
9889;BME280;4983;42.112;24.738;2023-07-29T09:33:10;99130.34;;;33.40;29.85
9889;BME280;4983;42.112;24.738;2023-07-29T09:35:38;99118.03;;;32.99;28.76
9889;BME280;4983;42.112;24.738;2023-07-29T09:38:06;99117.47;;;33.39;29.75
9889;BME280;4983;42.112;24.738;2023-07-29T09:40:38;99101.91;;;33.28;28.49
9889;BME280;4983;42.112;24.738;2023-07-29T09:43:09;99099.09;;;33.28;28.13
9889;BME280;4983;42.112;24.738;2023-07-29T09:45:37;99090.53;;;33.70;27.34
9889;BME280;4983;42.112;24.738;2023-07-29T09:48:05;99096.63;;;33.58;27.21
9889;BME280;4983;42.112;24.738;2023-07-29T09:50:35;99086.44;;;33.81;26.44
9889;BME280;4983;42.112;24.738;2023-07-29T09:53:03;99077.19;;;33.94;25.31
9889;BME280;4983;42.112;24.738;2023-07-29T09:55:32;99081.69;;;33.95;25.07
9889;BME280;4983;42.112;24.738;2023-07-29T09:58:02;99080.97;;;34.16;24.85
9889;BME280;4983;42.112;24.738;2023-07-29T10:00:32;99074.97;;;34.36;25.65
9889;BME280;4983;42.112;24.738;2023-07-29T10:03:00;99083.19;;;34.60;25.44
9889;BME280;4983;42.112;24.738;2023-07-29T10:05:28;99069.63;;;34.35;24.77
9889;BME280;4983;42.112;24.738;2023-07-29T10:07:56;99078.06;;;34.48;26.28
9889;BME280;4983;42.112;24.738;2023-07-29T10:10:23;99082.63;;;34.17;26.86
9889;BME280;4983;42.112;24.738;2023-07-29T10:12:50;99081.94;;;34.39;25.72
9889;BME280;4983;42.112;24.738;2023-07-29T10:15:21;99079.72;;;34.49;24.61
9889;BME280;4983;42.112;24.738;2023-07-29T10:17:50;99082.25;;;34.78;25.84
9889;BME280;4983;42.112;24.738;2023-07-29T10:20:18;99067.91;;;35.01;25.41
9889;BME280;4983;42.112;24.738;2023-07-29T10:22:47;99060.81;;;35.04;25.25
9889;BME280;4983;42.112;24.738;2023-07-29T10:25:16;99069.72;;;35.19;24.63
9889;BME280;4983;42.112;24.738;2023-07-29T10:27:47;99066.25;;;35.00;25.18
9889;BME280;4983;42.112;24.738;2023-07-29T10:30:15;99072.66;;;34.79;25.03
9889;BME280;4983;42.112;24.738;2023-07-29T10:32:45;99058.06;;;34.63;23.98
9889;BME280;4983;42.112;24.738;2023-07-29T10:35:12;99084.66;;;35.06;25.67
9889;BME280;4983;42.112;24.738;2023-07-29T10:37:40;99050.84;;;34.71;23.94
9889;BME280;4983;42.112;24.738;2023-07-29T10:40:09;99041.50;;;34.89;23.87
9889;BME280;4983;42.112;24.738;2023-07-29T10:42:37;99038.97;;;34.87;23.91
9889;BME280;4983;42.112;24.738;2023-07-29T10:45:23;99045.66;;;35.13;24.67
9889;BME280;4983;42.112;24.738;2023-07-29T10:47:51;99048.13;;;35.28;24.33
9889;BME280;4983;42.112;24.738;2023-07-29T10:50:20;99041.16;;;35.26;24.31
9889;BME280;4983;42.112;24.738;2023-07-29T10:52:52;99047.66;;;35.13;24.52
9889;BME280;4983;42.112;24.738;2023-07-29T10:55:30;99035.84;;;34.89;24.98
9889;BME280;4983;42.112;24.738;2023-07-29T10:58:07;99047.03;;;34.53;25.39
9889;BME280;4983;42.112;24.738;2023-07-29T11:00:34;99055.78;;;34.79;26.97
9889;BME280;4983;42.112;24.738;2023-07-29T11:03:05;99038.47;;;34.72;25.59
9889;BME280;4983;42.112;24.738;2023-07-29T11:05:46;99062.59;;;35.22;25.26
9889;BME280;4983;42.112;24.738;2023-07-29T11:08:21;99019.69;;;35.38;24.08
9889;BME280;4983;42.112;24.738;2023-07-29T11:11:01;99024.81;;;35.58;24.25
9889;BME280;4983;42.112;24.738;2023-07-29T11:13:30;99005.66;;;35.99;22.58
9889;BME280;4983;42.112;24.738;2023-07-29T11:15:58;99022.53;;;36.30;23.40
9889;BME280;4983;42.112;24.738;2023-07-29T11:18:29;99001.25;;;36.15;23.42
9889;BME280;4983;42.112;24.738;2023-07-29T11:20:57;98989.91;;;36.46;22.94
9889;BME280;4983;42.112;24.738;2023-07-29T11:23:29;99005.09;;;36.67;22.25
9889;BME280;4983;42.112;24.738;2023-07-29T11:25:57;99009.00;;;35.71;23.79
9889;BME280;4983;42.112;24.738;2023-07-29T11:28:26;99021.34;;;35.61;25.02
9889;BME280;4983;42.112;24.738;2023-07-29T11:30:54;98998.03;;;35.39;22.42
9889;BME280;4983;42.112;24.738;2023-07-29T11:33:23;98993.53;;;35.16;23.45
9889;BME280;4983;42.112;24.738;2023-07-29T11:35:52;99008.19;;;35.70;23.66
9889;BME280;4983;42.112;24.738;2023-07-29T11:38:21;98995.16;;;35.91;23.52
9889;BME280;4983;42.112;24.738;2023-07-29T11:40:55;98993.88;;;35.97;23.05
9889;BME280;4983;42.112;24.738;2023-07-29T11:43:22;98996.72;;;36.06;22.96
9889;BME280;4983;42.112;24.738;2023-07-29T11:45:51;98981.06;;;36.22;22.47
9889;BME280;4983;42.112;24.738;2023-07-29T11:48:25;98971.66;;;36.43;23.40
9889;BME280;4983;42.112;24.738;2023-07-29T11:50:54;98974.38;;;36.82;22.69
9889;BME280;4983;42.112;24.738;2023-07-29T11:53:22;98954.16;;;36.80;21.77
9889;BME280;4983;42.112;24.738;2023-07-29T11:55:52;98952.13;;;36.72;21.07
9889;BME280;4983;42.112;24.738;2023-07-29T11:58:20;98943.13;;;36.45;21.76
9889;BME280;4983;42.112;24.738;2023-07-29T12:00:48;98968.66;;;36.40;22.57
9889;BME280;4983;42.112;24.738;2023-07-29T12:03:16;98948.09;;;36.39;22.46
9889;BME280;4983;42.112;24.738;2023-07-29T12:05:46;98947.81;;;36.66;20.67
9889;BME280;4983;42.112;24.738;2023-07-29T12:08:16;98952.06;;;36.47;21.60
9889;BME280;4983;42.112;24.738;2023-07-29T12:10:43;98960.38;;;36.60;22.72
9889;BME280;4983;42.112;24.738;2023-07-29T12:13:12;98957.13;;;37.01;22.17
9889;BME280;4983;42.112;24.738;2023-07-29T12:15:44;98940.84;;;36.89;20.36
9889;BME280;4983;42.112;24.738;2023-07-29T12:18:12;98940.34;;;36.96;21.11
9889;BME280;4983;42.112;24.738;2023-07-29T12:20:41;98946.47;;;36.89;23.93
9889;BME280;4983;42.112;24.738;2023-07-29T12:23:09;98935.84;;;37.12;21.02
9889;BME280;4983;42.112;24.738;2023-07-29T12:25:40;98916.47;;;36.76;20.33
9889;BME280;4983;42.112;24.738;2023-07-29T12:28:07;98927.38;;;37.12;21.26
9889;BME280;4983;42.112;24.738;2023-07-29T12:30:41;98909.63;;;37.20;20.70
9889;BME280;4983;42.112;24.738;2023-07-29T12:33:09;98913.28;;;37.12;19.92
9889;BME280;4983;42.112;24.738;2023-07-29T12:35:37;98911.44;;;36.99;19.53
9889;BME280;4983;42.112;24.738;2023-07-29T12:38:05;98915.28;;;36.94;20.20
9889;BME280;4983;42.112;24.738;2023-07-29T12:40:32;98906.78;;;37.28;19.71
9889;BME280;4983;42.112;24.738;2023-07-29T12:43:01;98891.19;;;37.14;20.05
9889;BME280;4983;42.112;24.738;2023-07-29T12:45:35;98891.84;;;37.11;19.42
9889;BME280;4983;42.112;24.738;2023-07-29T12:48:06;98887.81;;;37.29;19.54
9889;BME280;4983;42.112;24.738;2023-07-29T12:50:34;98883.25;;;36.82;21.21
9889;BME280;4983;42.112;24.738;2023-07-29T12:53:01;98897.34;;;36.48;20.08
9889;BME280;4983;42.112;24.738;2023-07-29T12:55:29;98907.75;;;36.22;20.24
9889;BME280;4983;42.112;24.738;2023-07-29T12:57:56;98901.56;;;36.03;20.67
9889;BME280;4983;42.112;24.738;2023-07-29T13:00:26;98907.34;;;35.98;20.26
9889;BME280;4983;42.112;24.738;2023-07-29T13:02:53;98908.50;;;35.58;20.00
9889;BME280;4983;42.112;24.738;2023-07-29T13:05:21;98903.94;;;35.40;20.14
9889;BME280;4983;42.112;24.738;2023-07-29T13:07:48;98915.97;;;35.54;20.52
9889;BME280;4983;42.112;24.738;2023-07-29T13:10:15;98920.56;;;35.80;20.56
9889;BME280;4983;42.112;24.738;2023-07-29T13:12:44;98914.16;;;36.05;21.08
9889;BME280;4983;42.112;24.738;2023-07-29T13:15:11;98919.38;;;36.29;20.34
9889;BME280;4983;42.112;24.738;2023-07-29T13:17:40;98905.97;;;36.43;19.35
9889;BME280;4983;42.112;24.738;2023-07-29T13:20:08;98902.63;;;36.32;19.50